Time;durP1;ratioP1;P1;durP2;ratioP2;P2;SDS_P1;SDS_P2;PMS_P1;PMS_P2;Temp;Humidity;BMP_temperature;BMP_pressure;BME280_temperature;BME280_humidity;BME280_pressure;Samples;Min_cycle;Max_cycle;Signal;HPM_P1;HPM_P2
2023/06/15 00:00:49;;;;;;;0.25;0.25;;;18.80;99.90;;;;;;4897208;29;20072;-61
2023/06/15 00:03:16;;;;;;;0.22;0.22;;;16.60;99.90;;;;;;4897098;29;20267;-61
2023/06/15 00:05:41;;;;;;;0.60;0.60;;;16.00;99.90;;;;;;4896967;29;20566;-61
2023/06/15 00:08:07;;;;;;;;;;;16.70;99.90;;;;;;4897229;29;20048;-61
2023/06/15 00:10:33;;;;;;;0.20;0.20;;;16.50;99.90;;;;;;4897125;29;19927;-60
2023/06/15 00:12:59;;;;;;;0.40;0.40;;;16.50;99.90;;;;;;4897054;29;20049;-62
2023/06/15 00:15:27;;;;;;;;;;;16.10;99.90;;;;;;4897404;29;20493;-61
2023/06/15 00:17:54;;;;;;;0.63;0.60;;;16.30;99.90;;;;;;4896876;29;19934;-61
2023/06/15 00:20:22;;;;;;;0.20;0.20;;;15.80;99.90;;;;;;4896798;29;20053;-61
2023/06/15 00:22:49;;;;;;;0.65;0.65;;;16.00;99.90;;;;;;4896683;29;20053;-61
2023/06/15 00:25:15;;;;;;;0.52;0.52;;;15.80;99.90;;;;;;4896936;29;20094;-62
2023/06/15 00:27:40;;;;;;;0.20;0.20;;;15.70;99.90;;;;;;4896572;29;20489;-60
2023/06/15 00:30:09;;;;;;;0.65;0.63;;;15.90;99.90;;;;;;4896181;29;20135;-60
2023/06/15 00:32:34;;;;;;;0.60;0.60;;;16.20;99.90;;;;;;4896699;29;20061;-61
2023/06/15 00:35:00;;;;;;;0.30;0.30;;;15.70;99.90;;;;;;4879809;29;20402;-61
2023/06/15 00:37:26;;;;;;;;;;;16.00;99.90;;;;;;4896956;29;20132;-61
2023/06/15 00:39:51;;;;;;;0.35;0.35;;;16.10;99.90;;;;;;4896715;29;19963;-61
2023/06/15 00:42:17;;;;;;;;;;;16.10;99.90;;;;;;4897065;29;20049;-61
2023/06/15 00:44:42;;;;;;;0.20;0.20;;;15.80;99.90;;;;;;4896616;29;19927;-61
2023/06/15 00:47:08;;;;;;;;;;;16.00;99.90;;;;;;4896851;29;20498;-60
2023/06/15 00:49:34;;;;;;;0.20;0.20;;;15.90;99.90;;;;;;4910793;29;20266;-61
2023/06/15 00:52:01;;;;;;;0.55;0.47;;;15.80;99.90;;;;;;4896334;29;20702;-60
2023/06/15 00:54:28;;;;;;;0.30;0.30;;;15.90;99.90;;;;;;4896638;29;20354;-60
2023/06/15 00:56:55;;;;;;;0.30;0.30;;;15.80;99.90;;;;;;4896451;29;20055;-60
2023/06/15 00:59:21;;;;;;;0.22;0.22;;;15.40;99.90;;;;;;4896506;29;20144;-60
2023/06/15 01:01:48;;;;;;;0.63;0.63;;;15.60;99.90;;;;;;4896363;29;20073;-60
2023/06/15 01:04:15;;;;;;;0.45;0.45;;;15.80;99.90;;;;;;4896375;29;20108;-61
2023/06/15 01:06:42;;;;;;;;;;;15.70;99.90;;;;;;4896634;29;20139;-60
2023/06/15 01:09:11;;;;;;;;;;;15.20;99.90;;;;;;4896782;29;19953;-60
2023/06/15 01:11:38;;;;;;;0.40;0.40;;;15.50;99.90;;;;;;4896384;29;19927;-60
2023/06/15 01:14:05;;;;;;;0.55;0.55;;;15.20;99.90;;;;;;4896343;29;20143;-61
2023/06/15 01:16:44;;;;;;;0.22;0.22;;;15.10;99.90;;;;;;4896234;29;20044;-60
2023/06/15 01:19:31;;;;;;;0.20;0.20;;;15.50;99.90;;;;;;4896222;29;20124;-60
2023/06/15 01:22:11;;;;;;;0.40;0.40;;;15.40;99.90;;;;;;4896373;29;20053;-60
2023/06/15 01:24:41;;;;;;;0.30;0.30;;;15.30;99.90;;;;;;4896174;29;20100;-61
2023/06/15 01:27:09;;;;;;;0.20;0.20;;;14.80;99.90;;;;;;4896009;29;20129;-60
2023/06/15 01:29:36;;;;;;;0.25;0.25;;;15.40;99.90;;;;;;4896083;29;20063;-60
2023/06/15 01:32:04;;;;;;;3.95;0.40;;;15.00;99.90;;;;;;4895831;29;20499;-60
2023/06/15 01:34:31;;;;;;;0.40;0.40;;;15.00;99.90;;;;;;4896177;29;20049;-60
2023/06/15 01:36:56;;;;;;;0.25;0.25;;;14.90;99.90;;;;;;4896124;29;20052;-60
2023/06/15 01:39:22;;;;;;;;;;;15.00;99.90;;;;;;4896582;29;20048;-60
2023/06/15 01:41:48;;;;;;;0.20;0.20;;;15.10;99.90;;;;;;4897764;29;19983;-60
2023/06/15 01:44:13;;;;;;;;;;;14.70;99.90;;;;;;4900008;29;20052;-61
2023/06/15 01:46:40;;;;;;;0.30;0.30;;;15.20;99.90;;;;;;4899501;29;19931;-60
2023/06/15 01:49:05;;;;;;;0.50;0.50;;;15.10;99.90;;;;;;4899397;29;20067;-60
2023/06/15 01:51:32;;;;;;;;;;;14.70;99.90;;;;;;4899878;29;20060;-60
2023/06/15 01:53:57;;;;;;;0.40;0.40;;;14.70;99.90;;;;;;4899454;29;19985;-60
2023/06/15 01:56:23;;;;;;;;;;;14.80;99.90;;;;;;4899772;29;20093;-60
2023/06/15 01:58:49;;;;;;;0.35;0.35;;;15.10;99.90;;;;;;4899258;29;19974;-60
2023/06/15 02:01:14;;;;;;;;;;;15.40;99.90;;;;;;4899828;29;20048;-60
2023/06/15 02:03:40;;;;;;;0.50;0.50;;;15.30;99.90;;;;;;4899319;29;20328;-60
2023/06/15 02:06:06;;;;;;;;;;;14.70;99.90;;;;;;4899613;29;20044;-60
2023/06/15 02:08:32;;;;;;;0.22;0.22;;;15.00;99.90;;;;;;4899165;29;19979;-60
2023/06/15 02:10:58;;;;;;;0.40;0.40;;;14.90;99.90;;;;;;4899053;29;20055;-60
2023/06/15 02:13:23;;;;;;;0.70;0.57;;;14.70;99.90;;;;;;4882287;29;20056;-60
2023/06/15 02:15:49;;;;;;;;;;;14.00;99.90;;;;;;4899633;29;20048;-60
2023/06/15 02:18:15;;;;;;;0.60;0.30;;;14.50;99.90;;;;;;4899112;29;19938;-60
2023/06/15 02:20:41;;;;;;;;;;;14.60;99.90;;;;;;4899405;29;20482;-60
2023/06/15 02:23:07;;;;;;;0.22;0.22;;;14.30;99.90;;;;;;4898888;29;19930;-60
2023/06/15 02:25:33;;;;;;;0.22;0.22;;;14.90;99.90;;;;;;4898851;29;20048;-60
2023/06/15 02:27:59;;;;;;;0.43;0.43;;;14.00;99.90;;;;;;4898672;29;20072;-60
2023/06/15 02:30:25;;;;;;;0.35;0.35;;;14.00;99.90;;;;;;4898904;29;20143;-60
2023/06/15 02:32:53;;;;;;;0.35;0.35;;;14.20;99.90;;;;;;4898795;29;20052;-60
2023/06/15 02:35:19;;;;;;;0.20;0.20;;;13.60;99.90;;;;;;4898757;29;20422;-60
2023/06/15 02:37:45;;;;;;;0.20;0.20;;;14.00;99.90;;;;;;4898689;29;20075;-61
2023/06/15 02:40:11;;;;;;;0.20;0.20;;;14.60;99.90;;;;;;4898589;29;20053;-61
2023/06/15 02:42:38;;;;;;;0.30;0.30;;;13.90;99.90;;;;;;4898492;29;20052;-60
2023/06/15 02:45:06;;;;;;;3.22;0.45;;;14.00;99.90;;;;;;4898604;29;20127;-60
2023/06/15 02:47:34;;;;;;;0.40;0.40;;;14.40;99.90;;;;;;4898323;29;20048;-60
2023/06/15 02:50:00;;;;;;;0.30;0.30;;;14.40;99.90;;;;;;4898449;29;20565;-60
2023/06/15 02:52:26;;;;;;;0.65;0.50;;;14.20;99.90;;;;;;4898276;29;20052;-60
2023/06/15 02:54:52;;;;;;;0.38;0.38;;;13.70;99.90;;;;;;4897879;29;20045;-60
2023/06/15 02:57:18;;;;;;;0.40;0.40;;;14.40;99.90;;;;;;4898235;29;20418;-60
2023/06/15 02:59:44;;;;;;;;;;;13.50;99.90;;;;;;4898784;29;20054;-60
2023/06/15 03:02:10;;;;;;;0.50;0.50;;;13.60;99.90;;;;;;4898219;29;19924;-60
2023/06/15 03:04:44;;;;;;;0.20;0.20;;;13.90;99.90;;;;;;4898205;29;20088;-60
2023/06/15 03:07:11;;;;;;;0.30;0.30;;;13.80;99.90;;;;;;4898131;29;20087;-60
2023/06/15 03:09:37;;;;;;;0.32;0.32;;;14.10;99.90;;;;;;4897963;29;20052;-60
2023/06/15 03:12:03;;;;;;;0.30;0.30;;;13.60;99.90;;;;;;4898208;29;20045;-60
2023/06/15 03:14:28;;;;;;;0.40;0.40;;;13.60;99.90;;;;;;4898106;29;20091;-60
2023/06/15 03:16:55;;;;;;;0.75;0.75;;;14.00;99.90;;;;;;4898001;29;20138;-60
2023/06/15 03:19:21;;;;;;;0.20;0.20;;;13.70;99.90;;;;;;4897952;29;20051;-60
2023/06/15 03:21:47;;;;;;;0.82;0.47;;;13.80;99.90;;;;;;4897744;29;20056;-60
2023/06/15 03:24:16;;;;;;;0.20;0.20;;;13.90;99.90;;;;;;4897643;29;20044;-60
2023/06/15 03:26:43;;;;;;;0.20;0.20;;;13.50;99.90;;;;;;4897950;29;20055;-60
2023/06/15 03:29:08;;;;;;;14.63;3.22;;;14.30;99.90;;;;;;4897804;29;20049;-60
2023/06/15 03:31:40;;;;;;;0.40;0.40;;;14.00;99.90;;;;;;4897883;29;20513;-60
2023/06/15 03:34:07;;;;;;;0.20;0.20;;;14.60;99.90;;;;;;4897906;29;20108;-60
2023/06/15 03:36:32;;;;;;;0.30;0.30;;;14.10;99.90;;;;;;4897724;29;20497;-60
2023/06/15 03:38:58;;;;;;;0.75;0.75;;;13.80;99.90;;;;;;4897528;29;20112;-60
2023/06/15 03:41:27;;;;;;;;;;;13.80;99.90;;;;;;4898009;29;20445;-60
2023/06/15 03:43:52;;;;;;;0.30;0.30;;;13.50;99.90;;;;;;4897484;29;19924;-60
2023/06/15 03:46:18;;;;;;;0.20;0.20;;;13.90;99.90;;;;;;4897389;29;20089;-60
2023/06/15 03:48:45;;;;;;;;;;;14.20;99.90;;;;;;4897745;29;20057;-60
2023/06/15 03:51:11;;;;;;;0.90;0.90;;;14.00;99.90;;;;;;4897205;29;20031;-60
2023/06/15 03:53:37;;;;;;;1.60;0.85;;;14.10;99.90;;;;;;4897398;29;20489;-60
2023/06/15 03:56:03;;;;;;;1.02;0.52;;;13.80;99.90;;;;;;4897411;29;20053;-60
2023/06/15 03:58:28;;;;;;;;;;;13.60;99.90;;;;;;4897688;29;20044;-60
2023/06/15 04:00:56;;;;;;;0.80;0.55;;;14.20;99.90;;;;;;4897077;29;20706;-60
2023/06/15 04:03:21;;;;;;;0.22;0.22;;;14.30;99.90;;;;;;4897151;29;20057;-60
2023/06/15 04:05:49;;;;;;;0.50;0.50;;;14.00;99.90;;;;;;4896225;29;20108;-60
2023/06/15 04:08:14;;;;;;;0.30;0.30;;;13.70;99.90;;;;;;4896835;29;20445;-60
2023/06/15 04:10:40;;;;;;;0.20;0.20;;;14.20;99.90;;;;;;4897137;29;20056;-60
2023/06/15 04:13:06;;;;;;;0.40;0.40;;;14.20;99.90;;;;;;4895801;29;20099;-60
2023/06/15 04:15:31;;;;;;;;;;;13.80;99.90;;;;;;4897363;29;20044;-60
2023/06/15 04:18:00;;;;;;;0.75;0.57;;;14.10;99.90;;;;;;4896862;29;19928;-60
2023/06/15 04:20:30;;;;;;;0.20;0.20;;;14.10;99.90;;;;;;4896813;29;20144;-60
2023/06/15 04:22:59;;;;;;;0.57;0.57;;;14.00;99.90;;;;;;4896927;29;20064;-60
2023/06/15 04:25:27;;;;;;;0.20;0.20;;;14.00;99.90;;;;;;4896859;29;20200;-60
2023/06/15 04:27:53;;;;;;;0.60;0.38;;;14.60;99.90;;;;;;4896735;29;20044;-60
2023/06/15 04:30:24;;;;;;;;;;;14.50;99.90;;;;;;4897154;29;20079;-60
2023/06/15 04:32:57;;;;;;;0.85;0.22;;;14.10;99.90;;;;;;4896724;29;20019;-60
2023/06/15 04:35:24;;;;;;;0.20;0.20;;;14.10;99.90;;;;;;4896866;29;20056;-60
2023/06/15 04:37:52;;;;;;;0.30;0.30;;;14.00;99.90;;;;;;4896769;29;20133;-60
2023/06/15 04:40:20;;;;;;;0.30;0.30;;;14.60;99.90;;;;;;4896508;29;20566;-60
2023/06/15 04:42:46;;;;;;;0.20;0.20;;;14.80;99.90;;;;;;4880193;29;20060;-60
2023/06/15 04:45:11;;;;;;;;;;;15.40;99.90;;;;;;4896908;29;20139;-60
2023/06/15 04:47:37;;;;;;;0.25;0.25;;;15.10;99.90;;;;;;4896154;29;20014;-60
2023/06/15 04:50:03;;;;;;;;;;;15.10;99.90;;;;;;4897103;29;20063;-60
2023/06/15 04:52:29;;;;;;;0.38;0.35;;;15.20;99.90;;;;;;4896463;29;19927;-60
2023/06/15 04:54:55;;;;;;;;;;;15.20;99.90;;;;;;4880077;29;20063;-60
2023/06/15 04:57:21;;;;;;;0.20;0.20;;;15.60;99.90;;;;;;4896511;29;19927;-61
2023/06/15 04:59:47;;;;;;;0.52;0.30;;;15.90;99.90;;;;;;4896403;29;20053;-60
2023/06/15 05:02:12;;;;;;;0.40;0.40;;;15.60;99.90;;;;;;4896337;29;20055;-60
2023/06/15 05:04:38;;;;;;;0.55;0.30;;;16.30;99.90;;;;;;4896602;29;20139;-60
2023/06/15 05:07:04;;;;;;;;;;;16.10;99.90;;;;;;4896852;29;20058;-60
2023/06/15 05:09:29;;;;;;;0.20;0.20;;;16.60;99.90;;;;;;4896355;29;20361;-60
2023/06/15 05:11:55;;;;;;;;;;;16.20;99.90;;;;;;4896756;29;20060;-60
2023/06/15 05:14:21;;;;;;;0.30;0.30;;;16.70;99.90;;;;;;4896285;29;19927;-60
2023/06/15 05:16:47;;;;;;;;;;;16.60;99.90;;;;;;4898068;29;20127;-60
2023/06/15 05:19:12;;;;;;;0.20;0.20;;;16.40;99.90;;;;;;4900509;29;19930;-60
2023/06/15 05:21:38;;;;;;;;;;;16.50;99.90;;;;;;4883816;29;20474;-60
2023/06/15 05:24:04;;;;;;;0.20;0.20;;;16.80;99.90;;;;;;4896077;29;19954;-60
2023/06/15 05:26:30;;;;;;;;;;;17.30;99.90;;;;;;4898330;29;20063;-60
2023/06/15 05:28:55;;;;;;;0.28;0.28;;;17.50;99.90;;;;;;4899409;29;20296;-60
2023/06/15 05:31:21;;;;;;;;;;;17.60;99.90;;;;;;4899287;29;20060;-60
2023/06/15 05:33:46;;;;;;;0.70;0.70;;;17.50;99.90;;;;;;4899205;29;19931;-60
2023/06/15 05:36:12;;;;;;;;;;;17.80;99.90;;;;;;4899194;29;20840;-60
2023/06/15 05:38:38;;;;;;;1.48;0.65;;;17.70;99.90;;;;;;4899107;29;19923;-61
2023/06/15 05:41:03;;;;;;;;;;;18.00;99.90;;;;;;4899414;29;20060;-60
2023/06/15 05:43:29;;;;;;;0.55;0.55;;;18.10;99.90;;;;;;4899183;29;19930;-60
2023/06/15 05:45:54;;;;;;;;;;;17.50;99.90;;;;;;4899089;29;20052;-60
2023/06/15 05:48:20;;;;;;;0.55;0.55;;;17.90;99.90;;;;;;4898852;29;19963;-60
2023/06/15 05:50:46;;;;;;;;;;;17.50;99.90;;;;;;4899680;29;20064;-60
2023/06/15 05:53:12;;;;;;;0.20;0.20;;;18.00;99.90;;;;;;4899061;29;19998;-60
2023/06/15 05:55:38;;;;;;;1.20;0.55;;;18.20;99.90;;;;;;4898588;29;20059;-60
2023/06/15 05:58:04;;;;;;;0.32;0.32;;;18.10;99.90;;;;;;4898687;29;20875;-60
2023/06/15 06:00:30;;;;;;;;;;;18.50;99.90;;;;;;4898853;29;20079;-61
2023/06/15 06:02:57;;;;;;;0.22;0.22;;;18.60;99.90;;;;;;4898533;29;19923;-60
2023/06/15 06:05:23;;;;;;;0.40;0.40;;;18.30;99.90;;;;;;4898622;29;20048;-61
2023/06/15 06:07:49;;;;;;;1.33;1.23;;;18.80;99.90;;;;;;4898560;29;20052;-61
2023/06/15 06:10:19;;;;;;;0.28;0.28;;;18.70;99.90;;;;;;4898257;29;20115;-61
2023/06/15 06:12:44;;;;;;;0.10;0.10;;;18.80;99.90;;;;;;4898635;29;20084;-60
2023/06/15 06:15:10;;;;;;;0.20;0.20;;;18.70;99.90;;;;;;4898167;29;20095;-60
2023/06/15 06:17:36;;;;;;;0.32;0.32;;;18.90;99.90;;;;;;4881674;29;20055;-61
2023/06/15 06:20:03;;;;;;;0.40;0.40;;;19.00;99.90;;;;;;4898441;29;20044;-61
2023/06/15 06:22:28;;;;;;;0.40;0.40;;;19.20;99.90;;;;;;4898505;29;20131;-60
2023/06/15 06:24:54;;;;;;;0.52;0.52;;;19.30;99.90;;;;;;4898124;29;20128;-61
2023/06/15 06:27:20;;;;;;;0.45;0.45;;;19.00;99.90;;;;;;4897584;29;20048;-60
2023/06/15 06:29:45;;;;;;;0.30;0.30;;;19.30;99.90;;;;;;4897049;29;20150;-60
2023/06/15 06:32:11;;;;;;;0.13;0.13;;;19.50;99.90;;;;;;4897936;29;20508;-61
2023/06/15 06:34:37;;;;;;;0.20;0.20;;;19.60;99.90;;;;;;4898165;29;20409;-61
2023/06/15 06:37:04;;;;;;;0.30;0.30;;;19.50;99.90;;;;;;4897097;29;20103;-61
2023/06/15 06:39:30;;;;;;;1.20;0.82;;;19.60;99.90;;;;;;4896824;29;20067;-62
2023/06/15 06:41:56;;;;;;;0.32;0.32;;;19.80;99.90;;;;;;4896905;29;20064;-63
2023/06/15 06:44:22;;;;;;;0.85;0.55;;;19.70;99.90;;;;;;4897150;29;20052;-61
2023/06/15 06:46:47;;;;;;;0.25;0.25;;;19.80;99.90;;;;;;4897301;29;20118;-62
2023/06/15 06:49:13;;;;;;;0.38;0.38;;;19.80;99.90;;;;;;4896827;29;20065;-62
2023/06/15 06:51:39;;;;;;;0.20;0.20;;;20.10;99.90;;;;;;4897248;29;20086;-62
2023/06/15 06:54:05;;;;;;;0.40;0.40;;;20.30;99.90;;;;;;4896743;29;20071;-63
2023/06/15 06:56:30;;;;;;;0.30;0.30;;;20.30;99.90;;;;;;4896992;29;20052;-64
2023/06/15 06:58:56;;;;;;;0.47;0.47;;;20.20;99.90;;;;;;4879918;29;20075;-63
2023/06/15 07:01:22;;;;;;;0.45;0.40;;;20.50;99.90;;;;;;4897209;29;20119;-63
2023/06/15 07:03:48;;;;;;;0.30;0.30;;;20.60;99.90;;;;;;4896909;29;20378;-62
2023/06/15 07:06:14;;;;;;;1.17;0.40;;;20.70;99.90;;;;;;4896608;29;20100;-63
2023/06/15 07:08:40;;;;;;;0.28;0.20;;;20.80;99.90;;;;;;4896628;29;20048;-62
2023/06/15 07:11:05;;;;;;;0.30;0.25;;;20.80;99.90;;;;;;4896643;29;20056;-62
2023/06/15 07:13:31;;;;;;;1.00;0.20;;;20.80;99.90;;;;;;4896478;29;20056;-61
2023/06/15 07:15:57;;;;;;;0.10;0.10;;;21.10;99.90;;;;;;4896614;29;20092;-61
2023/06/15 07:18:24;;;;;;;0.43;0.43;;;21.00;99.90;;;;;;4896613;29;20108;-60
2023/06/15 07:20:53;;;;;;;0.20;0.20;;;21.10;99.90;;;;;;4896690;29;20052;-61
2023/06/15 07:23:23;;;;;;;0.25;0.25;;;21.20;99.90;;;;;;4896543;29;20067;-61
2023/06/15 07:25:53;;;;;;;0.35;0.35;;;21.30;99.90;;;;;;4896349;29;20056;-61
2023/06/15 07:28:19;;;;;;;0.30;0.30;;;21.40;99.90;;;;;;4895973;29;20044;-62
2023/06/15 07:30:49;;;;;;;0.35;0.35;;;21.30;99.90;;;;;;4896364;29;20490;-61
2023/06/15 07:33:15;;;;;;;0.50;0.50;;;21.20;99.90;;;;;;4896322;29;20135;-62
2023/06/15 07:35:42;;;;;;;0.40;0.40;;;21.90;99.90;;;;;;4896090;29;20052;-61
2023/06/15 07:38:07;;;;;;;0.32;0.32;;;21.80;99.90;;;;;;4877254;29;20388;-61
2023/06/15 07:40:33;;;;;;;0.40;0.28;;;22.20;99.90;;;;;;4886368;29;20056;-62
2023/06/15 07:42:59;;;;;;;0.55;0.50;;;21.70;99.90;;;;;;4896054;29;20434;-61
2023/06/15 07:45:25;;;;;;;0.30;0.30;;;21.70;99.90;;;;;;4896275;29;20663;-62
2023/06/15 07:47:51;;;;;;;1.45;0.63;;;21.80;99.90;;;;;;4896043;29;20061;-60
2023/06/15 07:50:17;;;;;;;0.20;0.20;;;21.80;99.90;;;;;;4910064;29;20107;-60
2023/06/15 07:52:42;;;;;;;0.10;0.10;;;22.40;99.90;;;;;;4896053;29;20060;-60
2023/06/15 07:55:08;;;;;;;0.22;0.20;;;22.60;99.90;;;;;;4895446;29;20390;-60
2023/06/15 07:57:35;;;;;;;0.10;0.10;;;22.30;99.90;;;;;;4894426;29;20063;-61
2023/06/15 08:00:05;;;;;;;1.38;0.50;;;22.00;99.90;;;;;;4911249;29;20401;-61
2023/06/15 08:02:31;;;;;;;0.30;0.30;;;22.20;99.90;;;;;;4895397;29;20603;-61
2023/06/15 08:04:56;;;;;;;0.10;0.10;;;22.40;99.90;;;;;;4895180;29;20056;-62
2023/06/15 08:07:22;;;;;;;0.20;0.20;;;22.90;99.90;;;;;;4895212;29;20049;-62
2023/06/15 08:09:48;;;;;;;0.30;0.30;;;22.70;99.90;;;;;;4894936;29;20056;-62
2023/06/15 08:12:13;;;;;;;0.10;0.10;;;22.80;99.90;;;;;;4908450;29;20119;-62
2023/06/15 08:14:39;;;;;;;0.30;0.30;;;22.80;99.90;;;;;;4911764;29;20049;-62
2023/06/15 08:17:05;;;;;;;0.32;0.32;;;22.70;99.90;;;;;;4896101;29;20064;-62
2023/06/15 08:19:31;;;;;;;2.70;0.65;;;22.80;99.90;;;;;;4895454;29;20101;-62
2023/06/15 08:21:57;;;;;;;0.38;0.38;;;22.40;99.90;;;;;;4895994;29;20458;-62
2023/06/15 08:24:22;;;;;;;0.55;0.50;;;22.50;99.90;;;;;;4895774;29;20052;-62
2023/06/15 08:26:51;;;;;;;0.30;0.30;;;22.70;99.90;;;;;;4895514;29;20060;-61
2023/06/15 08:29:18;;;;;;;0.10;0.10;;;22.60;99.90;;;;;;4895825;29;20115;-62
2023/06/15 08:31:44;;;;;;;2.90;0.50;;;23.20;99.90;;;;;;4895851;29;20418;-62
2023/06/15 08:34:10;;;;;;;0.20;0.20;;;22.90;99.90;;;;;;4895213;29;20056;-61
2023/06/15 08:36:37;;;;;;;0.10;0.10;;;23.30;99.90;;;;;;4896510;29;20060;-62
2023/06/15 08:39:07;;;;;;;0.10;0.10;;;23.10;99.90;;;;;;4896429;29;20490;-61
2023/06/15 08:41:37;;;;;;;0.20;0.20;;;23.60;99.90;;;;;;4896869;29;20060;-62
2023/06/15 08:44:04;;;;;;;0.38;0.20;;;23.30;99.90;;;;;;4896975;29;20045;-61
2023/06/15 08:46:30;;;;;;;0.15;0.15;;;23.40;99.90;;;;;;4896653;29;20132;-62
2023/06/15 08:48:58;;;;;;;0.55;0.20;;;23.20;99.90;;;;;;4896159;29;20204;-61
2023/06/15 08:51:25;;;;;;;0.77;0.47;;;23.40;99.90;;;;;;4896012;29;20052;-61
2023/06/15 08:53:54;;;;;;;0.15;0.15;;;23.50;99.90;;;;;;4896403;29;20044;-61
2023/06/15 08:56:21;;;;;;;0.10;0.10;;;23.70;99.90;;;;;;4896555;29;20053;-61
2023/06/15 08:58:49;;;;;;;0.73;0.60;;;23.90;99.90;;;;;;4896523;29;20450;-61
2023/06/15 09:01:23;;;;;;;0.25;0.22;;;23.60;99.90;;;;;;4896511;29;20506;-61
2023/06/15 09:03:54;;;;;;;0.20;0.20;;;24.30;99.90;;;;;;4877033;29;20438;-61
2023/06/15 09:06:21;;;;;;;0.28;0.28;;;24.20;99.90;;;;;;4895730;29;20188;-62
2023/06/15 09:08:48;;;;;;;0.10;0.10;;;23.60;99.90;;;;;;4895579;29;20048;-62
2023/06/15 09:11:15;;;;;;;0.30;0.30;;;23.70;99.90;;;;;;4895422;29;20524;-62
2023/06/15 09:13:41;;;;;;;0.20;0.20;;;23.60;99.90;;;;;;4895066;29;20096;-62
2023/06/15 09:16:10;;;;;;;0.20;0.20;;;24.10;99.90;;;;;;4894375;29;20052;-62
2023/06/15 09:18:51;;;;;;;0.40;0.40;;;23.70;99.90;;;;;;4895839;29;20057;-62
2023/06/15 09:21:20;;;;;;;0.45;0.45;;;23.90;99.90;;;;;;4879507;29;20052;-62
2023/06/15 09:23:47;;;;;;;0.28;0.28;;;23.80;99.90;;;;;;4896345;29;20061;-62
2023/06/15 09:26:27;;;;;;;0.40;0.40;;;23.80;99.90;;;;;;4896106;29;20053;-62
2023/06/15 09:28:57;;;;;;;0.20;0.20;;;23.60;99.90;;;;;;4896190;29;20089;-62
2023/06/15 09:31:34;;;;;;;0.13;0.10;;;24.10;99.90;;;;;;4895884;29;20053;-62
2023/06/15 09:34:07;;;;;;;0.30;0.30;;;24.30;99.90;;;;;;4896306;29;20132;-62
2023/06/15 09:36:34;;;;;;;1.10;1.02;;;24.00;99.90;;;;;;4896120;29;20059;-62
2023/06/15 09:39:00;;;;;;;0.20;0.20;;;24.10;99.90;;;;;;4896004;29;20163;-61
2023/06/15 09:41:26;;;;;;;0.22;0.22;;;24.20;99.90;;;;;;4879214;29;20522;-62
2023/06/15 09:43:53;;;;;;;0.40;0.40;;;24.70;99.90;;;;;;4895839;29;20052;-61
2023/06/15 09:46:20;;;;;;;0.10;0.10;;;24.50;99.90;;;;;;4895913;29;20441;-62
2023/06/15 09:48:49;;;;;;;0.43;0.30;;;24.80;99.90;;;;;;4895637;29;20398;-62
2023/06/15 09:51:15;;;;;;;0.40;0.32;;;24.90;99.90;;;;;;4895834;29;20056;-62
2023/06/15 09:53:43;;;;;;;0.25;0.25;;;24.80;99.90;;;;;;4895878;29;20072;-62
2023/06/15 09:56:10;;;;;;;0.17;0.17;;;24.50;99.90;;;;;;4894717;29;20044;-62
2023/06/15 09:58:36;;;;;;;0.00;0.00;;;24.50;99.90;;;;;;4891235;29;20627;-63
2023/06/15 10:01:04;;;;;;;0.57;0.57;;;24.70;99.90;;;;;;4895525;29;20056;-60
2023/06/15 10:03:33;;;;;;;0.50;0.50;;;24.40;99.90;;;;;;4896526;29;20152;-60
2023/06/15 10:06:05;;;;;;;3.13;1.42;;;24.40;99.90;;;;;;4905742;29;20052;-62
2023/06/15 10:08:34;;;;;;;0.35;0.35;;;24.50;99.90;;;;;;4912935;29;20048;-61
2023/06/15 10:11:00;;;;;;;0.30;0.30;;;24.60;99.90;;;;;;4898149;29;20055;-61
2023/06/15 10:13:39;;;;;;;0.20;0.20;;;24.60;99.90;;;;;;4898421;29;20056;-61
2023/06/15 10:16:08;;;;;;;0.52;0.52;;;24.60;99.90;;;;;;4898396;29;20048;-61
2023/06/15 10:18:35;;;;;;;0.30;0.30;;;24.60;99.90;;;;;;4898918;29;20048;-61
2023/06/15 10:21:04;;;;;;;0.40;0.30;;;24.70;99.90;;;;;;4898900;29;20110;-61
2023/06/15 10:23:32;;;;;;;0.20;0.20;;;24.80;99.90;;;;;;4898662;29;20054;-62
2023/06/15 10:25:58;;;;;;;0.10;0.10;;;24.90;99.90;;;;;;4898826;29;20131;-62
2023/06/15 10:28:30;;;;;;;0.45;0.45;;;24.50;99.90;;;;;;4898982;29;20128;-61
2023/06/15 10:31:04;;;;;;;0.40;0.32;;;24.40;99.90;;;;;;4898681;29;20058;-62
2023/06/15 10:34:03;;;;;;;0.45;0.45;;;24.40;99.90;;;;;;4881787;29;20052;-61
2023/06/15 10:36:38;;;;;;;0.32;0.32;;;24.50;99.90;;;;;;4891177;29;20068;-61
2023/06/15 10:39:16;;;;;;;0.10;0.10;;;24.00;99.90;;;;;;4898595;29;20446;-61
2023/06/15 10:41:44;;;;;;;1.70;1.13;;;24.50;99.90;;;;;;4898395;29;20049;-61
2023/06/15 10:44:15;;;;;;;0.20;0.20;;;24.40;99.90;;;;;;4898186;29;20056;-61
2023/06/15 10:46:41;;;;;;;0.28;0.28;;;24.20;99.90;;;;;;4898674;29;20490;-61
2023/06/15 10:49:09;;;;;;;0.57;0.40;;;24.70;99.90;;;;;;4898116;29;20060;-63
2023/06/15 10:51:49;;;;;;;7.07;0.70;;;24.60;99.90;;;;;;4898528;29;20102;-62
2023/06/15 10:54:23;;;;;;;1.10;0.45;;;25.40;99.90;;;;;;4898366;29;20108;-63
2023/06/15 10:56:50;;;;;;;1.10;0.80;;;25.70;99.90;;;;;;4898104;29;20468;-62
2023/06/15 10:59:46;;;;;;;0.10;0.10;;;25.40;99.90;;;;;;4898368;29;20132;-61
2023/06/15 11:02:33;;;;;;;0.60;0.60;;;25.10;99.90;;;;;;4898299;29;20049;-61
2023/06/15 11:05:09;;;;;;;0.52;0.50;;;25.30;99.90;;;;;;4898202;29;20052;-61
2023/06/15 11:07:37;;;;;;;0.43;0.30;;;25.60;99.90;;;;;;4898348;29;20159;-61
2023/06/15 11:10:26;;;;;;;0.52;0.52;;;25.40;99.90;;;;;;4898281;29;20052;-63
2023/06/15 11:13:02;;;;;;;0.10;0.10;;;25.70;99.90;;;;;;4898274;29;20056;-61
2023/06/15 11:15:36;;;;;;;0.65;0.40;;;25.70;99.90;;;;;;4897639;29;20049;-62
2023/06/15 11:18:12;;;;;;;0.50;0.50;;;25.50;99.90;;;;;;4889581;29;20049;-61
2023/06/15 11:20:44;;;;;;;0.10;0.10;;;25.80;99.90;;;;;;4880818;29;20044;-61
2023/06/15 11:23:16;;;;;;;0.20;0.20;;;25.80;99.90;;;;;;4895965;29;20053;-62
2023/06/15 11:25:50;;;;;;;0.25;0.25;;;25.90;99.90;;;;;;4897447;29;20057;-61
2023/06/15 11:28:22;;;;;;;0.10;0.10;;;25.50;99.90;;;;;;4897005;29;20053;-62
2023/06/15 11:30:53;;;;;;;0.55;0.55;;;25.40;99.20;;;;;;4897395;29;20049;-61
2023/06/15 11:33:45;;;;;;;0.20;0.20;;;25.70;98.40;;;;;;4897042;29;20073;-60
2023/06/15 11:36:11;;;;;;;0.32;0.32;;;25.20;99.90;;;;;;4894594;29;20060;-60
2023/06/15 11:38:37;;;;;;;0.50;0.50;;;25.50;99.90;;;;;;4896936;29;20552;-60
2023/06/15 11:41:08;;;;;;;0.47;0.47;;;25.80;99.90;;;;;;4896998;29;20051;-61
2023/06/15 11:43:40;;;;;;;1.45;0.65;;;25.70;99.50;;;;;;4897074;29;20473;-62
2023/06/15 11:46:11;;;;;;;0.47;0.30;;;25.80;99.60;;;;;;4897310;29;20062;-61
2023/06/15 11:48:38;;;;;;;0.22;0.22;;;25.80;99.90;;;;;;4896434;29;20140;-61
2023/06/15 11:51:08;;;;;;;0.15;0.15;;;26.20;99.90;;;;;;4896316;29;20416;-62
2023/06/15 11:53:34;;;;;;;0.30;0.30;;;25.80;99.90;;;;;;4896700;29;20045;-61
2023/06/15 11:56:00;;;;;;;0.40;0.40;;;26.00;99.90;;;;;;4896913;29;20054;-62
2023/06/15 11:58:26;;;;;;;0.28;0.28;;;25.60;99.90;;;;;;4896223;29;20524;-61
2023/06/15 12:00:52;;;;;;;0.10;0.10;;;25.90;99.90;;;;;;4896811;29;20053;-61
2023/06/15 12:03:18;;;;;;;0.30;0.30;;;25.60;99.90;;;;;;4896110;29;20163;-61
2023/06/15 12:05:44;;;;;;;0.52;0.52;;;25.80;99.90;;;;;;4896098;29;20058;-61
2023/06/15 12:08:11;;;;;;;0.20;0.20;;;25.30;99.80;;;;;;4896113;29;20398;-63
2023/06/15 12:10:37;;;;;;;0.20;0.20;;;25.50;99.90;;;;;;4896458;29;20060;-61
2023/06/15 12:13:09;;;;;;;0.28;0.28;;;25.70;99.70;;;;;;4896254;29;20465;-61
2023/06/15 12:15:39;;;;;;;0.28;0.28;;;25.70;99.60;;;;;;4911162;29;20044;-62
2023/06/15 12:18:08;;;;;;;0.50;0.50;;;25.90;99.90;;;;;;4912935;29;20104;-61
2023/06/15 12:20:36;;;;;;;0.20;0.20;;;25.60;99.90;;;;;;4894382;29;20569;-62
2023/06/15 12:23:02;;;;;;;0.65;0.30;;;26.10;99.20;;;;;;4896257;29;20091;-63
2023/06/15 12:25:47;;;;;;;0.10;0.10;;;25.70;99.90;;;;;;4895738;29;20080;-61
2023/06/15 12:28:17;;;;;;;0.52;0.50;;;26.00;99.90;;;;;;4895626;29;20045;-61
2023/06/15 12:30:47;;;;;;;0.85;0.65;;;26.50;99.90;;;;;;4896197;29;20056;-61
2023/06/15 12:33:39;;;;;;;0.43;0.43;;;26.00;99.00;;;;;;4896086;29;20060;-62
2023/06/15 12:36:10;;;;;;;0.10;0.10;;;26.10;99.90;;;;;;4895790;29;20056;-60
2023/06/15 12:38:36;;;;;;;0.20;0.20;;;26.00;99.90;;;;;;4896103;29;20123;-61
2023/06/15 12:41:02;;;;;;;0.10;0.10;;;26.10;99.90;;;;;;4895886;29;20056;-60
2023/06/15 12:43:28;;;;;;;0.32;0.32;;;26.00;99.90;;;;;;4895934;29;20405;-61
2023/06/15 12:45:54;;;;;;;0.13;0.13;;;25.70;99.90;;;;;;4896187;29;20136;-61
2023/06/15 12:48:21;;;;;;;0.10;0.10;;;26.00;99.90;;;;;;4896280;29;20049;-61
2023/06/15 12:50:47;;;;;;;0.35;0.35;;;26.20;99.90;;;;;;4896231;29;20120;-62
2023/06/15 12:53:13;;;;;;;0.00;0.00;;;26.30;99.90;;;;;;4896377;29;20075;-63
2023/06/15 12:55:39;;;;;;;0.90;0.50;;;26.50;99.20;;;;;;4896141;29;20482;-62
2023/06/15 12:58:05;;;;;;;0.20;0.20;;;26.50;98.50;;;;;;4906814;29;20064;-62